createdAt,value
2023-02-24T00:00:32.104Z,16.72
2023-02-24T00:02:59.354Z,16.70
2023-02-24T00:05:26.431Z,16.69
2023-02-24T00:07:53.518Z,16.70
2023-02-24T00:10:21.500Z,16.69
2023-02-24T00:12:49.309Z,16.67
2023-02-24T00:15:16.424Z,16.66
2023-02-24T00:20:33.568Z,16.69
2023-02-24T00:23:00.705Z,16.68
2023-02-24T00:25:27.825Z,16.68
2023-02-24T00:28:01.613Z,16.67
2023-02-24T00:30:31.425Z,16.65
2023-02-24T00:33:01.400Z,16.63
2023-02-24T00:35:29.332Z,16.60
2023-02-24T00:37:56.462Z,16.61
2023-02-24T00:40:24.090Z,16.59
2023-02-24T00:42:51.857Z,16.60
2023-02-24T00:45:18.945Z,16.57
2023-02-24T00:47:46.036Z,16.63
2023-02-24T00:50:14.205Z,16.61
2023-02-24T00:55:36.274Z,16.55
2023-02-24T00:58:04.158Z,16.54
2023-02-24T01:00:35.872Z,16.48
2023-02-24T01:03:03.027Z,16.52
2023-02-24T01:05:30.139Z,16.54
2023-02-24T01:07:57.206Z,16.54
2023-02-24T01:10:26.966Z,16.52
2023-02-24T01:12:54.210Z,16.48
2023-02-24T01:15:21.331Z,16.43
2023-02-24T01:20:38.437Z,16.42
2023-02-24T01:23:05.504Z,16.41
2023-02-24T01:25:32.581Z,16.41
2023-02-24T01:27:59.742Z,16.40
2023-02-24T01:30:26.846Z,16.39
2023-02-24T01:32:54.090Z,16.39
2023-02-24T01:35:21.324Z,16.38
2023-02-24T01:40:35.423Z,16.35
2023-02-24T01:43:02.523Z,16.36
2023-02-24T01:45:29.879Z,16.35
2023-02-24T01:47:56.969Z,16.33
2023-02-24T01:50:25.997Z,16.33
2023-02-24T01:52:56.114Z,16.31
2023-02-24T01:55:24.585Z,16.33
2023-02-24T02:00:39.446Z,16.30
2023-02-24T02:03:08.137Z,16.31
2023-02-24T02:05:35.345Z,16.30
2023-02-24T02:08:02.670Z,16.31
2023-02-24T02:13:21.064Z,16.30
2023-02-24T02:15:48.454Z,16.29
2023-02-24T02:18:15.546Z,16.29
2023-02-24T02:23:29.873Z,16.26
2023-02-24T02:25:56.936Z,16.18
2023-02-24T02:28:24.014Z,16.17
2023-02-24T02:33:39.479Z,16.09
2023-02-24T02:38:54.164Z,16.09
2023-02-24T02:41:22.450Z,16.10
2023-02-24T02:46:36.778Z,16.11
2023-02-24T02:49:03.914Z,16.08
2023-02-24T02:51:30.970Z,16.09
2023-02-24T02:53:59.287Z,16.07
2023-02-24T02:56:26.404Z,16.05
2023-02-24T02:58:53.470Z,16.07
2023-02-24T03:01:21.103Z,16.07
2023-02-24T03:03:50.098Z,16.06
2023-02-24T03:06:17.240Z,16.06
2023-02-24T03:08:44.302Z,16.05
2023-02-24T03:11:11.368Z,16.04
2023-02-24T03:13:38.445Z,16.03
2023-02-24T03:16:06.519Z,16.02
2023-02-24T03:18:33.637Z,16.00
2023-02-24T03:21:01.534Z,16.00
2023-02-24T03:26:21.724Z,15.98
2023-02-24T03:31:36.847Z,15.96
2023-02-24T03:34:04.099Z,15.98
2023-02-24T03:36:31.183Z,15.96
2023-02-24T03:38:58.649Z,15.97
2023-02-24T03:41:25.830Z,15.96
2023-02-24T03:43:52.905Z,15.95
2023-02-24T03:46:20.077Z,15.94
2023-02-24T03:48:47.999Z,15.93
2023-02-24T03:51:15.994Z,15.92
2023-02-24T03:56:30.048Z,15.92
2023-02-24T03:58:57.114Z,15.92
2023-02-24T04:01:25.479Z,15.92
2023-02-24T04:06:41.786Z,15.89
2023-02-24T04:09:09.509Z,15.87
2023-02-24T04:11:37.503Z,15.87
2023-02-24T04:14:06.526Z,15.87
2023-02-24T04:16:36.704Z,15.87
2023-02-24T04:19:03.984Z,15.84
2023-02-24T04:21:31.342Z,15.86
2023-02-24T04:23:58.931Z,15.87
2023-02-24T04:29:17.519Z,15.84
2023-02-24T04:34:32.726Z,15.82
2023-02-24T04:37:02.259Z,15.81
2023-02-24T04:39:29.430Z,15.82
2023-02-24T04:41:57.735Z,15.81
2023-02-24T04:44:25.286Z,15.80
2023-02-24T04:49:41.140Z,15.78
2023-02-24T04:52:09.271Z,15.79
2023-02-24T04:54:36.414Z,15.77
2023-02-24T04:57:04.168Z,15.77
2023-02-24T04:59:31.226Z,15.76
2023-02-24T05:02:01.519Z,15.78
2023-02-24T05:07:17.038Z,15.76
2023-02-24T05:09:44.142Z,15.76
2023-02-24T05:12:11.223Z,15.73
2023-02-24T05:14:39.652Z,15.72
2023-02-24T05:17:06.880Z,15.73
2023-02-24T05:22:40.222Z,15.72
2023-02-24T05:27:56.738Z,15.70
2023-02-24T05:30:24.303Z,15.68
2023-02-24T05:32:54.198Z,15.69
2023-02-24T05:35:21.283Z,15.68
2023-02-24T05:40:15.358Z,15.69
2023-02-24T05:45:32.807Z,15.67
2023-02-24T05:48:00.393Z,15.69
2023-02-24T05:50:27.541Z,15.65
2023-02-24T05:52:55.991Z,15.66
2023-02-24T05:55:23.616Z,15.66
2023-02-24T05:57:50.904Z,15.65
2023-02-24T06:03:08.558Z,15.64
2023-02-24T06:05:39.856Z,15.64
2023-02-24T06:08:11.814Z,15.65
2023-02-24T06:10:40.421Z,15.64
2023-02-24T06:13:07.721Z,15.64
2023-02-24T06:15:35.122Z,15.61
2023-02-24T06:18:03.851Z,15.63
2023-02-24T06:20:34.572Z,15.64
2023-02-24T06:23:02.988Z,15.62
2023-02-24T06:25:33.460Z,15.63
2023-02-24T06:28:01.972Z,15.63
2023-02-24T06:32:59.716Z,15.62
2023-02-24T06:35:27.590Z,15.62
2023-02-24T06:37:56.122Z,15.63
2023-02-24T06:40:23.532Z,15.62
2023-02-24T06:42:50.960Z,15.62
2023-02-24T06:45:18.393Z,15.62
2023-02-24T06:50:16.176Z,15.62
2023-02-24T06:52:43.467Z,15.63
2023-02-24T06:55:25.506Z,15.61
2023-02-24T06:57:57.222Z,15.63
2023-02-24T07:00:27.889Z,15.62
2023-02-24T07:02:56.882Z,15.62
2023-02-24T07:05:24.383Z,15.63
2023-02-24T07:10:19.726Z,15.64
2023-02-24T07:12:51.470Z,15.65
2023-02-24T07:15:18.802Z,15.67
2023-02-24T07:17:48.270Z,15.67
2023-02-24T07:20:25.537Z,15.68
2023-02-24T07:23:02.416Z,15.67
2023-02-24T07:25:35.225Z,15.67
2023-02-24T07:28:05.729Z,15.66
2023-02-24T07:30:38.227Z,15.68
2023-02-24T07:33:05.952Z,15.68
2023-02-24T07:35:35.356Z,15.68
2023-02-24T07:38:05.278Z,15.67
2023-02-24T07:40:33.500Z,15.67
2023-02-24T07:43:01.098Z,15.69
2023-02-24T07:45:29.939Z,15.70
2023-02-24T07:47:57.784Z,15.70
2023-02-24T07:50:28.339Z,15.69
2023-02-24T07:52:59.446Z,15.67
2023-02-24T07:55:31.404Z,15.70
2023-02-24T07:57:58.651Z,15.68
2023-02-24T08:00:28.474Z,15.69
2023-02-24T08:02:56.003Z,15.72
2023-02-24T08:05:24.707Z,15.73
2023-02-24T08:10:25.595Z,15.73
2023-02-24T08:12:56.063Z,15.74
2023-02-24T08:15:26.589Z,15.73
2023-02-24T08:17:53.877Z,15.74
2023-02-24T08:20:21.162Z,15.74
2023-02-24T08:25:19.900Z,15.75
2023-02-24T08:28:07.797Z,15.76
2023-02-24T08:30:39.155Z,15.77
2023-02-24T08:33:11.606Z,15.77
2023-02-24T08:35:38.972Z,15.76
2023-02-24T08:38:09.652Z,15.79
2023-02-24T08:40:40.186Z,15.78
2023-02-24T08:43:19.900Z,15.80
2023-02-24T08:45:47.261Z,15.81
2023-02-24T08:48:32.481Z,15.80
2023-02-24T08:50:59.924Z,15.81
2023-02-24T08:53:31.676Z,15.82
2023-02-24T08:56:01.639Z,15.83
2023-02-24T08:58:28.901Z,15.84
2023-02-24T09:00:58.733Z,15.87
2023-02-24T09:03:29.136Z,15.81
2023-02-24T09:06:01.033Z,15.83
2023-02-24T09:08:32.837Z,15.87
2023-02-24T09:11:08.126Z,15.89
2023-02-24T09:13:35.533Z,15.90
2023-02-24T09:16:06.485Z,15.92
2023-02-24T09:18:38.533Z,15.94
2023-02-24T09:21:24.913Z,15.95
2023-02-24T09:23:54.855Z,15.94
2023-02-24T09:26:24.434Z,15.99
2023-02-24T09:28:58.090Z,15.99
2023-02-24T09:31:40.935Z,16.00
2023-02-24T09:34:15.881Z,15.99
2023-02-24T09:37:01.618Z,16.01
2023-02-24T09:39:54.744Z,16.01
2023-02-24T09:42:22.178Z,15.99
2023-02-24T09:47:39.056Z,16.00
2023-02-24T09:50:14.458Z,15.99
2023-02-24T09:52:43.158Z,16.00
2023-02-24T09:55:19.129Z,16.01
2023-02-24T09:58:06.479Z,16.00
2023-02-24T10:00:45.267Z,16.08
2023-02-24T10:03:42.273Z,16.09
2023-02-24T10:06:21.135Z,16.09
2023-02-24T10:08:56.810Z,16.13
2023-02-24T10:11:38.467Z,16.14
2023-02-24T10:16:41.793Z,16.14
2023-02-24T10:19:21.667Z,16.16
2023-02-24T10:24:30.186Z,16.16
2023-02-24T10:27:08.836Z,16.17
2023-02-24T10:29:42.315Z,16.18
2023-02-24T10:37:32.692Z,16.16
2023-02-24T10:40:05.380Z,16.18
2023-02-24T10:42:43.176Z,16.18
2023-02-24T10:45:17.474Z,16.21
2023-02-24T10:47:47.604Z,16.18
2023-02-24T10:55:48.688Z,16.24
2023-02-24T10:58:30.969Z,16.23
2023-02-24T11:03:45.435Z,16.29
2023-02-24T11:06:32.863Z,16.29
2023-02-24T11:09:19.621Z,16.33
2023-02-24T11:12:08.018Z,16.36
2023-02-24T11:14:57.193Z,16.38
2023-02-24T11:17:29.955Z,16.38
2023-02-24T11:19:57.635Z,16.39
2023-02-24T11:22:27.646Z,16.37
2023-02-24T11:25:05.798Z,16.42
2023-02-24T11:27:41.798Z,16.40
2023-02-24T11:30:15.109Z,16.39
2023-02-24T11:32:42.790Z,16.43
2023-02-24T11:35:13.060Z,16.41
2023-02-24T11:38:12.931Z,16.43
2023-02-24T11:40:48.487Z,16.44
2023-02-24T11:43:19.977Z,16.46
2023-02-24T11:45:47.490Z,16.44
2023-02-24T11:48:19.627Z,16.44
2023-02-24T11:50:49.229Z,16.42
2023-02-24T11:53:19.666Z,16.43
2023-02-24T11:55:47.153Z,16.43
2023-02-24T12:00:46.923Z,16.42
2023-02-24T12:05:43.031Z,16.42
2023-02-24T12:08:19.522Z,16.43
2023-02-24T12:11:00.375Z,16.41
2023-02-24T12:13:27.912Z,16.44
2023-02-24T12:16:00.669Z,16.44
2023-02-24T12:18:30.930Z,16.47
2023-02-24T12:20:58.426Z,16.45
2023-02-24T12:23:27.758Z,16.46
2023-02-24T12:25:57.181Z,16.47
2023-02-24T12:28:28.579Z,16.49
2023-02-24T12:30:57.863Z,16.48
2023-02-24T12:33:27.241Z,16.46
2023-02-24T12:35:57.155Z,16.47
2023-02-24T12:38:27.553Z,16.46
2023-02-24T12:40:55.136Z,16.49
2023-02-24T12:43:25.670Z,16.46
2023-02-24T12:45:53.202Z,16.50
2023-02-24T12:48:22.665Z,16.52
2023-02-24T12:50:58.282Z,16.50
2023-02-24T12:53:28.047Z,16.52
2023-02-24T12:55:58.770Z,16.52
2023-02-24T12:58:26.471Z,16.54
2023-02-24T13:00:57.199Z,16.52
2023-02-24T13:03:28.379Z,16.55
2023-02-24T13:06:05.006Z,16.52
2023-02-24T13:08:40.481Z,16.54
2023-02-24T13:11:15.484Z,16.54
2023-02-24T13:13:45.033Z,16.55
2023-02-24T13:16:18.427Z,16.54
2023-02-24T13:18:48.751Z,16.54
2023-02-24T13:21:23.147Z,16.55
2023-02-24T13:23:57.563Z,16.55
2023-02-24T13:29:07.986Z,16.52
2023-02-24T13:31:41.318Z,16.54
2023-02-24T13:34:11.110Z,16.53
2023-02-24T13:36:40.100Z,16.57
2023-02-24T13:39:13.086Z,16.55
2023-02-24T13:41:43.443Z,16.59
2023-02-24T13:44:13.587Z,16.58
2023-02-24T13:46:46.381Z,16.58
2023-02-24T13:51:47.922Z,16.54
2023-02-24T13:54:17.793Z,16.57
2023-02-24T13:56:48.673Z,16.59
2023-02-24T13:59:27.613Z,16.57
2023-02-24T14:01:55.073Z,16.58
2023-02-24T14:04:30.990Z,16.59
2023-02-24T14:06:58.536Z,16.61
2023-02-24T14:09:26.131Z,16.60
2023-02-24T14:12:03.075Z,16.61
2023-02-24T14:14:32.673Z,16.61
2023-02-24T14:17:00.299Z,16.63
2023-02-24T14:19:27.866Z,16.65
2023-02-24T14:22:02.344Z,16.65
2023-02-24T14:24:44.326Z,16.67
2023-02-24T14:27:22.204Z,16.68
2023-02-24T14:29:52.879Z,16.65
2023-02-24T14:34:50.999Z,16.65
2023-02-24T14:37:22.462Z,16.63
2023-02-24T14:39:55.039Z,16.70
2023-02-24T14:42:32.103Z,16.68
2023-02-24T14:45:03.316Z,16.66
2023-02-24T14:47:32.703Z,16.73
2023-02-24T14:50:12.046Z,16.72
2023-02-24T14:52:44.656Z,16.72
2023-02-24T14:55:13.772Z,16.72
2023-02-24T14:57:48.871Z,16.72
2023-02-24T15:00:17.705Z,16.71
2023-02-24T15:02:49.489Z,16.72
2023-02-24T15:05:39.813Z,16.73
2023-02-24T15:08:07.481Z,16.77
2023-02-24T15:10:37.110Z,16.78
2023-02-24T15:13:13.967Z,16.81
2023-02-24T15:15:47.360Z,16.82
2023-02-24T15:20:56.577Z,16.81
2023-02-24T15:23:24.096Z,16.85
2023-02-24T15:25:53.179Z,16.85
2023-02-24T15:28:21.031Z,16.88
2023-02-24T15:30:53.696Z,16.82
2023-02-24T15:33:26.637Z,16.82
2023-02-24T15:35:56.600Z,16.85
2023-02-24T15:38:31.865Z,16.82
2023-02-24T15:41:06.153Z,16.85
2023-02-24T15:43:43.999Z,16.88
2023-02-24T15:46:14.396Z,16.87
2023-02-24T15:48:44.773Z,16.84
2023-02-24T15:53:57.697Z,16.86
2023-02-24T15:56:32.940Z,16.89
2023-02-24T16:01:52.021Z,16.89
2023-02-24T16:09:24.107Z,16.85
2023-02-24T16:11:54.488Z,16.87
2023-02-24T16:14:23.944Z,16.90
2023-02-24T16:16:52.933Z,16.92
2023-02-24T16:19:25.522Z,16.93
2023-02-24T16:21:57.090Z,16.95
2023-02-24T16:24:30.009Z,16.95
2023-02-24T16:29:30.440Z,16.97
2023-02-24T16:31:58.316Z,16.96
2023-02-24T16:34:28.096Z,16.96
2023-02-24T16:39:33.849Z,16.97
2023-02-24T16:44:38.094Z,16.96
2023-02-24T16:49:40.948Z,16.97
2023-02-24T16:52:08.510Z,16.99
2023-02-24T16:54:38.219Z,17.02
2023-02-24T16:59:38.708Z,17.07
2023-02-24T17:02:13.596Z,17.07
2023-02-24T17:04:43.462Z,17.06
2023-02-24T17:07:33.845Z,17.09
2023-02-24T17:10:03.807Z,17.08
2023-02-24T17:12:47.237Z,17.06
2023-02-24T17:15:18.527Z,17.03
2023-02-24T17:17:48.262Z,16.99
2023-02-24T17:20:17.890Z,17.00
2023-02-24T17:22:51.292Z,17.07
2023-02-24T17:25:21.096Z,17.07
2023-02-24T17:27:53.086Z,17.05
2023-02-24T17:30:28.391Z,17.10
2023-02-24T17:33:00.504Z,17.19
2023-02-24T17:35:30.239Z,17.17
2023-02-24T17:38:06.320Z,17.10
2023-02-24T17:40:34.137Z,17.10
2023-02-24T17:43:07.183Z,17.09
2023-02-24T17:45:36.498Z,17.10
2023-02-24T17:48:07.360Z,17.10
2023-02-24T17:50:34.791Z,17.14
2023-02-24T17:53:15.611Z,17.18
2023-02-24T17:56:02.249Z,17.22
2023-02-24T17:58:32.603Z,17.17
2023-02-24T18:03:49.840Z,17.23
2023-02-24T18:08:50.702Z,17.32
2023-02-24T18:13:52.898Z,17.33
2023-02-24T18:16:22.958Z,17.37
2023-02-24T18:18:50.491Z,17.39
2023-02-24T18:23:49.976Z,17.49
2023-02-24T18:26:18.585Z,17.51
2023-02-24T18:28:55.795Z,17.50
2023-02-24T18:34:15.580Z,17.51
2023-02-24T18:36:44.941Z,17.54
2023-02-24T18:39:20.617Z,17.63
2023-02-24T18:41:49.969Z,17.71
2023-02-24T18:44:30.496Z,17.60
2023-02-24T18:50:08.374Z,17.61
2023-02-24T18:52:38.381Z,17.65
2023-02-24T18:55:23.308Z,17.75
2023-02-24T19:00:35.558Z,17.62
2023-02-24T19:03:34.925Z,17.67
2023-02-24T19:06:07.116Z,17.70
2023-02-24T19:08:59.846Z,17.77
2023-02-24T19:14:19.759Z,17.83
2023-02-24T19:17:02.314Z,17.80
2023-02-24T19:19:55.280Z,17.83
2023-02-24T19:24:53.355Z,17.85
2023-02-24T19:27:35.772Z,17.87
2023-02-24T19:33:05.034Z,17.83
2023-02-24T19:35:39.621Z,17.74
2023-02-24T19:38:07.407Z,17.66
2023-02-24T19:40:36.937Z,17.81
2023-02-24T19:43:11.740Z,17.80
2023-02-24T19:45:41.911Z,17.77
2023-02-24T19:48:12.709Z,17.85
2023-02-24T19:50:41.180Z,17.91
2023-02-24T19:58:27.972Z,18.00
2023-02-24T20:03:45.070Z,17.94
2023-02-24T20:08:55.136Z,17.97
2023-02-24T20:11:25.259Z,17.86
2023-02-24T20:13:52.770Z,17.94
2023-02-24T20:16:20.505Z,17.88
2023-02-24T20:18:55.480Z,17.88
2023-02-24T20:21:23.586Z,17.85
2023-02-24T20:23:55.524Z,17.85
2023-02-24T20:26:26.051Z,17.91
2023-02-24T20:28:54.002Z,17.92
2023-02-24T20:33:51.422Z,17.91
2023-02-24T20:36:19.429Z,17.96
2023-02-24T20:38:51.309Z,18.03
2023-02-24T20:41:21.378Z,18.03
2023-02-24T20:53:58.474Z,17.98
2023-02-24T20:56:26.198Z,17.95
2023-02-24T20:58:58.468Z,17.92
2023-02-24T21:01:25.972Z,17.93
2023-02-24T21:06:27.447Z,17.93
2023-02-24T21:08:55.299Z,17.84
2023-02-24T21:13:52.961Z,17.94
2023-02-24T21:18:50.826Z,18.00
2023-02-24T21:23:53.646Z,17.98
2023-02-24T21:26:21.859Z,17.94
2023-02-24T21:28:57.186Z,17.98
2023-02-24T21:31:30.503Z,18.02
2023-02-24T21:36:30.727Z,17.99
2023-02-24T21:39:03.741Z,17.98
2023-02-24T21:41:47.705Z,18.01
2023-02-24T21:44:24.265Z,18.04
2023-02-24T21:46:57.032Z,18.02
2023-02-24T21:49:25.606Z,18.01
2023-02-24T21:51:55.451Z,17.95
2023-02-24T21:54:23.406Z,17.99
2023-02-24T21:56:52.431Z,18.06
2023-02-24T21:59:24.962Z,18.00
2023-02-24T22:04:26.139Z,18.07
2023-02-24T22:06:55.117Z,18.13
2023-02-24T22:09:25.830Z,18.15
2023-02-24T22:11:54.329Z,18.09
2023-02-24T22:14:21.830Z,18.06
2023-02-24T22:16:49.363Z,18.08
2023-02-24T22:19:19.241Z,18.02
2023-02-24T22:21:46.825Z,18.01
2023-02-24T22:24:14.326Z,17.96
2023-02-24T22:26:44.030Z,17.89
2023-02-24T22:31:48.364Z,17.97
2023-02-24T22:36:44.325Z,17.97
2023-02-24T22:41:52.939Z,17.90
2023-02-24T22:44:21.411Z,17.95
2023-02-24T22:46:49.161Z,17.92
2023-02-24T22:49:18.947Z,17.92
2023-02-24T22:51:46.581Z,17.89
2023-02-24T22:56:47.710Z,17.94
2023-02-24T22:59:20.689Z,17.91
2023-02-24T23:01:50.692Z,17.95
2023-02-24T23:06:47.975Z,17.94
2023-02-24T23:11:48.613Z,17.94
2023-02-24T23:14:17.883Z,17.88
2023-02-24T23:16:46.683Z,17.89
2023-02-24T23:19:16.311Z,17.88
2023-02-24T23:21:43.807Z,17.84
2023-02-24T23:26:41.974Z,17.86
2023-02-24T23:29:13.221Z,17.88
2023-02-24T23:31:42.829Z,17.86
2023-02-24T23:36:40.160Z,17.84
2023-02-24T23:39:07.573Z,17.82
2023-02-24T23:41:45.680Z,17.79
2023-02-24T23:44:16.597Z,17.74
2023-02-24T23:46:44.188Z,17.74
2023-02-24T23:51:48.008Z,17.70
2023-02-24T23:54:16.027Z,17.69
2023-02-24T23:56:48.439Z,17.66
